AKX329 RJGG-ROMY
Flight info
| Callsign | AKX329 |
|---|---|
| Flight time | 2h 20m |
| Altitude | 34000 |
| Route | ESPAN KEC Y12 LAXEL Y52 TONAR Y525 KXC Y62 GANAS Y576 YUTAH |
| Aircraft | B738/M-SDE2E3FGHIRWXY/LB1 |
Departure
| Time | 2026-05-06 02:38 |
|---|---|
| Airport | Chubu Centrair International Airport (RJGG) |
Arrival
| Time | 2026-05-06 04:58 |
|---|---|
| Airport | Miyako Airport (ROMY) |
| Time | Latitude | Longitude | Altitude | Speed | Heading |
|---|---|---|---|---|---|
| 2026-05-06 02:10 | 34.86073 | 136.81303 | 20 ft | 0 kts | 79° |
| 2026-05-06 02:25 | 34.86072 | 136.81297 | 19 ft | 2 kts | 78° |
| 2026-05-06 02:25 | 34.86069 | 136.81278 | 18 ft | 2 kts | 77° |
| 2026-05-06 02:26 | 34.86065 | 136.81259 | 18 ft | 2 kts | 76° |
| 2026-05-06 02:26 | 34.86061 | 136.81239 | 18 ft | 2 kts | 73° |
| 2026-05-06 02:26 | 34.86056 | 136.81221 | 18 ft | 2 kts | 70° |
| 2026-05-06 02:26 | 34.86050 | 136.81202 | 21 ft | 2 kts | 61° |
| 2026-05-06 02:27 | 34.86040 | 136.81186 | 20 ft | 2 kts | 37° |
| 2026-05-06 02:27 | 34.86028 | 136.81179 | 20 ft | 1 kts | 7° |
| 2026-05-06 02:27 | 34.86026 | 136.81179 | 20 ft | 0 kts | 7° |
| 2026-05-06 02:28 | 34.86027 | 136.81179 | 20 ft | 1 kts | 6° |
| 2026-05-06 02:28 | 34.86043 | 136.81176 | 21 ft | 5 kts | 350° |
| 2026-05-06 02:29 | 34.86092 | 136.81164 | 18 ft | 10 kts | 348° |
| 2026-05-06 02:29 | 34.86173 | 136.81145 | 18 ft | 14 kts | 350° |
| 2026-05-06 02:29 | 34.86281 | 136.81119 | 19 ft | 16 kts | 348° |
| 2026-05-06 02:29 | 34.86349 | 136.81026 | 18 ft | 17 kts | 264° |
| 2026-05-06 02:30 | 34.86327 | 136.80888 | 19 ft | 16 kts | 258° |
| 2026-05-06 02:30 | 34.86262 | 136.80796 | 18 ft | 16 kts | 175° |
| 2026-05-06 02:30 | 34.86165 | 136.80769 | 18 ft | 15 kts | 240° |
| 2026-05-06 02:30 | 34.86078 | 136.80725 | 18 ft | 15 kts | 170° |
| 2026-05-06 02:31 | 34.85980 | 136.80750 | 18 ft | 14 kts | 167° |
| 2026-05-06 02:31 | 34.85887 | 136.80771 | 19 ft | 13 kts | 170° |
| 2026-05-06 02:31 | 34.85798 | 136.80791 | 18 ft | 13 kts | 168° |
| 2026-05-06 02:31 | 34.85711 | 136.80812 | 19 ft | 13 kts | 168° |
| 2026-05-06 02:32 | 34.85627 | 136.80833 | 19 ft | 12 kts | 167° |
| 2026-05-06 02:32 | 34.85546 | 136.80854 | 18 ft | 12 kts | 168° |
| 2026-05-06 02:32 | 34.85465 | 136.80872 | 18 ft | 12 kts | 171° |
| 2026-05-06 02:32 | 34.85387 | 136.80890 | 18 ft | 11 kts | 169° |
| 2026-05-06 02:33 | 34.85311 | 136.80909 | 18 ft | 11 kts | 168° |
| 2026-05-06 02:33 | 34.85262 | 136.80921 | 18 ft | 11 kts | 168° |
| 2026-05-06 02:33 | 34.85097 | 136.80960 | 20 ft | 10 kts | 169° |
| 2026-05-06 02:34 | 34.85029 | 136.80976 | 18 ft | 10 kts | 168° |
| 2026-05-06 02:34 | 34.84963 | 136.80993 | 19 ft | 10 kts | 168° |
| 2026-05-06 02:34 | 34.84899 | 136.81009 | 18 ft | 9 kts | 168° |
| 2026-05-06 02:34 | 34.84837 | 136.81023 | 18 ft | 9 kts | 170° |
| 2026-05-06 02:35 | 34.84776 | 136.81037 | 18 ft | 9 kts | 169° |
| 2026-05-06 02:35 | 34.84716 | 136.81050 | 18 ft | 9 kts | 167° |
| 2026-05-06 02:35 | 34.84659 | 136.81066 | 19 ft | 8 kts | 167° |
| 2026-05-06 02:35 | 34.84604 | 136.81079 | 18 ft | 8 kts | 171° |
| 2026-05-06 02:36 | 34.84546 | 136.81094 | 18 ft | 9 kts | 168° |
| 2026-05-06 02:36 | 34.84478 | 136.81110 | 18 ft | 11 kts | 169° |
| 2026-05-06 02:36 | 34.84398 | 136.81128 | 18 ft | 12 kts | 174° |
| 2026-05-06 02:36 | 34.84335 | 136.81074 | 17 ft | 12 kts | 248° |
| 2026-05-06 02:37 | 34.84321 | 136.80965 | 16 ft | 14 kts | 273° |
| 2026-05-06 02:37 | 34.84383 | 136.80890 | 17 ft | 14 kts | 349° |
| 2026-05-06 02:37 | 34.84734 | 136.80800 | 20 ft | 97 kts | 349° |
| 2026-05-06 02:37 | 34.85670 | 136.80562 | 48 ft | 174 kts | 348° |
| 2026-05-06 02:38 | 34.86980 | 136.80278 | 730 ft | 200 kts | 351° |
| 2026-05-06 02:38 | 34.88346 | 136.79655 | 1418 ft | 229 kts | 322° |
| 2026-05-06 02:38 | 34.89428 | 136.78152 | 1674 ft | 246 kts | 299° |
| 2026-05-06 02:38 | 34.89917 | 136.76169 | 2502 ft | 246 kts | 272° |
| 2026-05-06 02:39 | 34.89697 | 136.74146 | 3548 ft | 242 kts | 250° |
| 2026-05-06 02:39 | 34.89185 | 136.72193 | 4494 ft | 241 kts | 249° |
| 2026-05-06 02:39 | 34.88666 | 136.70255 | 5506 ft | 240 kts | 249° |
| 2026-05-06 02:39 | 34.88129 | 136.68277 | 5976 ft | 248 kts | 249° |
| 2026-05-06 02:40 | 34.87257 | 136.66423 | 6543 ft | 260 kts | 224° |
| 2026-05-06 02:40 | 34.85732 | 136.65217 | 7281 ft | 266 kts | 201° |
| 2026-05-06 02:40 | 34.83897 | 136.64873 | 8093 ft | 271 kts | 176° |
| 2026-05-06 02:40 | 34.82036 | 136.64829 | 8915 ft | 274 kts | 196° |
| 2026-05-06 02:41 | 34.80190 | 136.64204 | 9758 ft | 278 kts | 184° |
| 2026-05-06 02:41 | 34.78283 | 136.64628 | 10426 ft | 289 kts | 158° |
| 2026-05-06 02:41 | 34.76448 | 136.65882 | 10623 ft | 317 kts | 144° |
| 2026-05-06 02:41 | 34.74783 | 136.67804 | 10810 ft | 342 kts | 134° |
| 2026-05-06 02:42 | 34.73227 | 136.70135 | 10962 ft | 366 kts | 129° |
| 2026-05-06 02:42 | 34.71339 | 136.72294 | 11201 ft | 380 kts | 150° |
| 2026-05-06 02:42 | 34.68869 | 136.73463 | 11732 ft | 384 kts | 169° |
| 2026-05-06 02:42 | 34.66244 | 136.73809 | 12402 ft | 385 kts | 183° |
| 2026-05-06 02:43 | 34.63606 | 136.73280 | 12945 ft | 385 kts | 197° |
| 2026-05-06 02:43 | 34.61029 | 136.72375 | 12987 ft | 385 kts | 198° |
| 2026-05-06 02:43 | 34.58457 | 136.71458 | 12995 ft | 386 kts | 198° |
| 2026-05-06 02:43 | 34.55872 | 136.70566 | 12987 ft | 385 kts | 197° |
| 2026-05-06 02:44 | 34.53296 | 136.69717 | 12995 ft | 381 kts | 197° |
| 2026-05-06 02:44 | 34.50741 | 136.68894 | 12999 ft | 379 kts | 197° |
| 2026-05-06 02:44 | 34.48196 | 136.68079 | 13005 ft | 378 kts | 197° |
| 2026-05-06 02:44 | 34.45644 | 136.67261 | 13002 ft | 379 kts | 197° |
| 2026-05-06 02:45 | 34.43124 | 136.66451 | 13010 ft | 380 kts | 197° |
| 2026-05-06 02:45 | 34.40564 | 136.65628 | 13007 ft | 382 kts | 197° |
| 2026-05-06 02:45 | 34.37981 | 136.64796 | 13006 ft | 384 kts | 197° |
| 2026-05-06 02:45 | 34.35396 | 136.63962 | 13003 ft | 385 kts | 197° |
| 2026-05-06 02:46 | 34.32810 | 136.63130 | 13006 ft | 384 kts | 197° |
| 2026-05-06 02:46 | 34.30225 | 136.62300 | 12999 ft | 384 kts | 197° |
| 2026-05-06 02:46 | 34.27641 | 136.61470 | 12998 ft | 383 kts | 197° |
| 2026-05-06 02:46 | 34.25067 | 136.60643 | 12997 ft | 382 kts | 197° |
| 2026-05-06 02:47 | 34.22500 | 136.59819 | 13000 ft | 382 kts | 197° |
| 2026-05-06 02:47 | 34.19944 | 136.58975 | 12998 ft | 380 kts | 200° |
| 2026-05-06 02:47 | 34.17641 | 136.57540 | 13004 ft | 380 kts | 219° |
| 2026-05-06 02:47 | 34.15659 | 136.55421 | 13652 ft | 380 kts | 224° |
| 2026-05-06 02:48 | 34.13709 | 136.53271 | 14456 ft | 377 kts | 224° |
| 2026-05-06 02:48 | 34.11761 | 136.51134 | 15056 ft | 379 kts | 224° |
| 2026-05-06 02:48 | 34.09796 | 136.48988 | 15609 ft | 383 kts | 224° |
| 2026-05-06 02:48 | 34.07824 | 136.46844 | 16315 ft | 380 kts | 224° |
| 2026-05-06 02:49 | 34.05877 | 136.44734 | 16882 ft | 383 kts | 224° |
| 2026-05-06 02:49 | 34.03881 | 136.42574 | 17330 ft | 388 kts | 224° |
| 2026-05-06 02:49 | 34.01859 | 136.40389 | 17797 ft | 391 kts | 225° |
| 2026-05-06 02:49 | 33.99823 | 136.38193 | 18309 ft | 394 kts | 225° |
| 2026-05-06 02:50 | 33.97774 | 136.35984 | 18764 ft | 396 kts | 225° |
| 2026-05-06 02:50 | 33.95719 | 136.33772 | 19262 ft | 396 kts | 224° |
| 2026-05-06 02:50 | 33.93665 | 136.31563 | 19791 ft | 395 kts | 224° |
| 2026-05-06 02:50 | 33.91614 | 136.29358 | 20295 ft | 394 kts | 224° |
| 2026-05-06 02:51 | 33.89567 | 136.27159 | 20761 ft | 395 kts | 224° |
| 2026-05-06 02:51 | 33.87544 | 136.24986 | 21201 ft | 395 kts | 224° |
| 2026-05-06 02:51 | 33.85486 | 136.22777 | 21632 ft | 396 kts | 224° |
| 2026-05-06 02:51 | 33.83427 | 136.20568 | 22057 ft | 396 kts | 224° |
| 2026-05-06 02:52 | 33.81369 | 136.18362 | 22466 ft | 397 kts | 224° |
| 2026-05-06 02:52 | 33.79303 | 136.16149 | 22848 ft | 398 kts | 224° |
| 2026-05-06 02:52 | 33.77232 | 136.13932 | 23183 ft | 399 kts | 224° |
| 2026-05-06 02:52 | 33.75152 | 136.11707 | 23535 ft | 400 kts | 223° |
| 2026-05-06 02:53 | 33.73070 | 136.09480 | 23878 ft | 401 kts | 223° |
| 2026-05-06 02:53 | 33.71690 | 136.08007 | 24029 ft | 401 kts | 223° |
| 2026-05-06 02:53 | 33.69597 | 136.05772 | 24283 ft | 402 kts | 223° |
| 2026-05-06 02:53 | 33.67502 | 136.03535 | 24541 ft | 404 kts | 223° |
| 2026-05-06 02:54 | 33.65400 | 136.01293 | 24778 ft | 405 kts | 223° |
| 2026-05-06 02:54 | 33.62602 | 135.98312 | 25095 ft | 406 kts | 223° |
| 2026-05-06 02:54 | 33.61196 | 135.96814 | 25245 ft | 407 kts | 223° |
| 2026-05-06 02:54 | 33.59068 | 135.94550 | 25466 ft | 408 kts | 223° |
| 2026-05-06 02:55 | 33.56943 | 135.92287 | 25688 ft | 409 kts | 223° |
| 2026-05-06 02:55 | 33.54801 | 135.90011 | 25908 ft | 411 kts | 223° |
| 2026-05-06 02:55 | 33.52660 | 135.87735 | 26138 ft | 412 kts | 223° |
| 2026-05-06 02:55 | 33.50536 | 135.85482 | 26335 ft | 413 kts | 223° |
| 2026-05-06 02:56 | 33.48384 | 135.83200 | 26537 ft | 414 kts | 223° |
| 2026-05-06 02:56 | 33.46225 | 135.80917 | 26801 ft | 413 kts | 223° |
| 2026-05-06 02:56 | 33.43877 | 135.78931 | 27082 ft | 417 kts | 212° |
| 2026-05-06 02:56 | 33.41184 | 135.77549 | 27360 ft | 420 kts | 206° |
| 2026-05-06 02:57 | 33.38452 | 135.76295 | 27585 ft | 421 kts | 206° |
| 2026-05-06 02:57 | 33.35713 | 135.75038 | 27889 ft | 420 kts | 206° |
| 2026-05-06 02:57 | 33.32991 | 135.73776 | 28240 ft | 418 kts | 206° |
| 2026-05-06 02:57 | 33.30311 | 135.72522 | 28582 ft | 417 kts | 206° |
| 2026-05-06 02:58 | 33.27617 | 135.71252 | 28897 ft | 416 kts | 207° |
| 2026-05-06 02:58 | 33.24926 | 135.69978 | 29219 ft | 415 kts | 207° |
| 2026-05-06 02:58 | 33.22241 | 135.68707 | 29557 ft | 414 kts | 207° |
| 2026-05-06 02:58 | 33.19563 | 135.67438 | 29901 ft | 413 kts | 207° |
| 2026-05-06 02:59 | 33.16890 | 135.66174 | 30253 ft | 412 kts | 207° |
| 2026-05-06 02:59 | 33.14222 | 135.64913 | 30555 ft | 411 kts | 207° |
| 2026-05-06 02:59 | 33.11567 | 135.63660 | 30837 ft | 410 kts | 207° |
| 2026-05-06 02:59 | 33.08914 | 135.62409 | 31159 ft | 409 kts | 207° |
| 2026-05-06 03:00 | 33.06316 | 135.61185 | 31544 ft | 405 kts | 208° |
| 2026-05-06 03:00 | 33.03702 | 135.59954 | 31973 ft | 402 kts | 208° |
| 2026-05-06 03:00 | 33.01108 | 135.58732 | 32370 ft | 399 kts | 208° |
| 2026-05-06 03:00 | 32.98534 | 135.57519 | 32694 ft | 397 kts | 208° |
| 2026-05-06 03:01 | 32.95968 | 135.56310 | 33036 ft | 396 kts | 209° |
| 2026-05-06 03:01 | 32.93408 | 135.55104 | 33393 ft | 394 kts | 209° |
| 2026-05-06 03:01 | 32.90871 | 135.53910 | 33768 ft | 391 kts | 209° |
| 2026-05-06 03:01 | 32.88351 | 135.52724 | 34074 ft | 389 kts | 208° |
| 2026-05-06 03:02 | 32.85822 | 135.51534 | 34139 ft | 393 kts | 208° |
| 2026-05-06 03:02 | 32.80723 | 135.49135 | 34148 ft | 393 kts | 208° |
| 2026-05-06 03:03 | 32.75703 | 135.46784 | 34149 ft | 388 kts | 208° |
| 2026-05-06 03:03 | 32.70688 | 135.44435 | 34160 ft | 386 kts | 208° |
| 2026-05-06 03:04 | 32.65683 | 135.42092 | 34146 ft | 386 kts | 208° |
| 2026-05-06 03:04 | 32.60689 | 135.39757 | 34155 ft | 386 kts | 208° |
| 2026-05-06 03:05 | 32.55677 | 135.37418 | 34144 ft | 388 kts | 208° |
| 2026-05-06 03:05 | 32.50622 | 135.35057 | 34148 ft | 395 kts | 208° |
| 2026-05-06 03:06 | 32.45497 | 135.32672 | 34154 ft | 396 kts | 208° |
| 2026-05-06 03:06 | 32.40363 | 135.30285 | 34134 ft | 396 kts | 207° |
| 2026-05-06 03:07 | 32.35224 | 135.27899 | 34138 ft | 397 kts | 207° |
| 2026-05-06 03:07 | 32.30114 | 135.25529 | 34150 ft | 397 kts | 207° |
| 2026-05-06 03:08 | 32.24967 | 135.23144 | 34152 ft | 397 kts | 207° |
| 2026-05-06 03:08 | 32.19830 | 135.20766 | 34146 ft | 397 kts | 207° |
| 2026-05-06 03:09 | 32.14692 | 135.18391 | 34136 ft | 396 kts | 207° |
| 2026-05-06 03:09 | 32.09984 | 135.15212 | 34144 ft | 387 kts | 220° |
| 2026-05-06 03:10 | 32.06055 | 135.10990 | 34133 ft | 383 kts | 232° |
| 2026-05-06 03:10 | 32.02792 | 135.06017 | 34151 ft | 383 kts | 233° |
| 2026-05-06 03:11 | 31.99544 | 135.00999 | 34151 ft | 385 kts | 233° |
| 2026-05-06 03:11 | 31.96267 | 134.95962 | 34139 ft | 388 kts | 233° |
| 2026-05-06 03:12 | 31.92993 | 134.90953 | 34119 ft | 388 kts | 233° |
| 2026-05-06 03:12 | 31.89697 | 134.85926 | 34134 ft | 388 kts | 233° |
| 2026-05-06 03:13 | 31.86381 | 134.80876 | 34138 ft | 389 kts | 233° |
| 2026-05-06 03:13 | 31.83083 | 134.75860 | 34131 ft | 389 kts | 233° |
| 2026-05-06 03:14 | 31.79764 | 134.70819 | 34128 ft | 390 kts | 233° |
| 2026-05-06 03:14 | 31.76441 | 134.65778 | 34129 ft | 390 kts | 233° |
| 2026-05-06 03:15 | 31.73118 | 134.60744 | 34144 ft | 390 kts | 233° |
| 2026-05-06 03:15 | 31.69787 | 134.55705 | 34114 ft | 390 kts | 233° |
| 2026-05-06 03:16 | 31.66452 | 134.50665 | 34127 ft | 391 kts | 233° |
| 2026-05-06 03:16 | 31.63129 | 134.45652 | 34126 ft | 392 kts | 233° |
| 2026-05-06 03:17 | 31.59777 | 134.40600 | 34134 ft | 392 kts | 232° |
| 2026-05-06 03:17 | 31.56421 | 134.35550 | 34109 ft | 391 kts | 233° |
| 2026-05-06 03:18 | 31.53073 | 134.30518 | 34117 ft | 391 kts | 233° |
| 2026-05-06 03:18 | 31.49743 | 134.25519 | 34114 ft | 391 kts | 233° |
| 2026-05-06 03:19 | 31.46395 | 134.20500 | 34135 ft | 391 kts | 232° |
| 2026-05-06 03:19 | 31.43046 | 134.15487 | 34112 ft | 390 kts | 232° |
| 2026-05-06 03:20 | 31.38038 | 134.08000 | 34117 ft | 390 kts | 232° |
| 2026-05-06 03:20 | 31.34686 | 134.02997 | 34114 ft | 390 kts | 232° |
| 2026-05-06 03:21 | 31.31334 | 133.98001 | 34110 ft | 391 kts | 232° |
| 2026-05-06 03:21 | 31.27968 | 133.92991 | 34112 ft | 391 kts | 232° |
| 2026-05-06 03:22 | 31.24607 | 133.87994 | 34110 ft | 391 kts | 232° |
| 2026-05-06 03:22 | 31.21258 | 133.83020 | 34099 ft | 391 kts | 232° |
| 2026-05-06 03:23 | 31.17885 | 133.78022 | 34113 ft | 392 kts | 232° |
| 2026-05-06 03:23 | 31.14499 | 133.73005 | 34110 ft | 393 kts | 232° |
| 2026-05-06 03:24 | 31.11105 | 133.67983 | 34098 ft | 394 kts | 232° |
| 2026-05-06 03:24 | 31.07701 | 133.62955 | 34098 ft | 395 kts | 232° |
| 2026-05-06 03:25 | 31.04312 | 133.57953 | 34093 ft | 396 kts | 232° |
| 2026-05-06 03:25 | 31.00889 | 133.52909 | 34094 ft | 396 kts | 232° |
| 2026-05-06 03:26 | 30.97461 | 133.47861 | 34106 ft | 396 kts | 232° |
| 2026-05-06 03:26 | 30.94029 | 133.42812 | 34114 ft | 397 kts | 232° |
| 2026-05-06 03:27 | 30.90608 | 133.37785 | 34088 ft | 398 kts | 232° |
| 2026-05-06 03:27 | 30.87161 | 133.32725 | 34091 ft | 398 kts | 232° |
| 2026-05-06 03:28 | 30.83711 | 133.27667 | 34075 ft | 399 kts | 231° |
| 2026-05-06 03:28 | 30.80276 | 133.22636 | 34099 ft | 400 kts | 231° |
| 2026-05-06 03:29 | 30.76802 | 133.17558 | 34095 ft | 402 kts | 231° |
| 2026-05-06 03:29 | 30.73318 | 133.12470 | 34084 ft | 402 kts | 231° |
| 2026-05-06 03:30 | 30.69820 | 133.07368 | 34063 ft | 403 kts | 231° |
| 2026-05-06 03:30 | 30.66333 | 133.02289 | 34088 ft | 405 kts | 231° |
| 2026-05-06 03:31 | 30.62813 | 132.97169 | 34086 ft | 405 kts | 231° |
| 2026-05-06 03:31 | 30.59299 | 132.92064 | 34072 ft | 404 kts | 231° |
| 2026-05-06 03:32 | 30.55807 | 132.86998 | 34075 ft | 403 kts | 231° |
| 2026-05-06 03:32 | 30.52306 | 132.81924 | 34074 ft | 402 kts | 231° |
| 2026-05-06 03:33 | 30.48804 | 132.76856 | 34076 ft | 402 kts | 231° |
| 2026-05-06 03:33 | 30.45300 | 132.71792 | 34074 ft | 402 kts | 231° |
| 2026-05-06 03:34 | 30.41762 | 132.66685 | 34068 ft | 410 kts | 231° |
| 2026-05-06 03:34 | 30.38186 | 132.61530 | 34066 ft | 413 kts | 231° |
| 2026-05-06 03:35 | 30.34615 | 132.56386 | 34060 ft | 405 kts | 230° |
| 2026-05-06 03:35 | 30.31091 | 132.51319 | 34050 ft | 403 kts | 230° |
| 2026-05-06 03:36 | 30.27566 | 132.46258 | 34068 ft | 411 kts | 230° |
| 2026-05-06 03:36 | 30.23952 | 132.41075 | 34063 ft | 414 kts | 230° |
| 2026-05-06 03:37 | 30.20367 | 132.35930 | 34056 ft | 405 kts | 229° |
| 2026-05-06 03:37 | 30.16830 | 132.30875 | 34043 ft | 406 kts | 230° |
| 2026-05-06 03:38 | 30.13228 | 132.25734 | 34070 ft | 415 kts | 230° |
| 2026-05-06 03:38 | 30.09608 | 132.20570 | 34057 ft | 416 kts | 230° |
| 2026-05-06 03:39 | 30.05968 | 132.15379 | 34062 ft | 414 kts | 229° |
| 2026-05-06 03:39 | 30.02338 | 132.10214 | 34058 ft | 414 kts | 229° |
| 2026-05-06 03:40 | 29.98708 | 132.05054 | 34059 ft | 414 kts | 229° |
| 2026-05-06 03:40 | 29.95090 | 131.99919 | 34057 ft | 415 kts | 229° |
| 2026-05-06 03:41 | 29.92064 | 131.95623 | 34065 ft | 415 kts | 227° |
| 2026-05-06 03:41 | 29.88412 | 131.90453 | 34051 ft | 416 kts | 228° |
| 2026-05-06 03:42 | 29.84749 | 131.85270 | 34059 ft | 417 kts | 228° |
| 2026-05-06 03:42 | 29.81073 | 131.80086 | 34058 ft | 418 kts | 227° |
| 2026-05-06 03:43 | 29.77339 | 131.75004 | 34066 ft | 418 kts | 226° |
| 2026-05-06 03:43 | 29.73547 | 131.69911 | 34043 ft | 420 kts | 227° |
| 2026-05-06 03:44 | 29.69734 | 131.64782 | 34059 ft | 422 kts | 227° |
| 2026-05-06 03:44 | 29.65912 | 131.59633 | 34053 ft | 423 kts | 227° |
| 2026-05-06 03:45 | 29.62111 | 131.54512 | 34050 ft | 424 kts | 227° |
| 2026-05-06 03:45 | 29.58272 | 131.49346 | 34053 ft | 425 kts | 227° |
| 2026-05-06 03:46 | 29.54424 | 131.44171 | 34049 ft | 426 kts | 227° |
| 2026-05-06 03:46 | 29.50570 | 131.38997 | 34049 ft | 426 kts | 227° |
| 2026-05-06 03:47 | 29.46714 | 131.33828 | 34052 ft | 426 kts | 227° |
| 2026-05-06 03:47 | 29.42858 | 131.28664 | 34051 ft | 426 kts | 227° |
| 2026-05-06 03:48 | 29.39014 | 131.23524 | 34046 ft | 427 kts | 227° |
| 2026-05-06 03:48 | 29.35147 | 131.18360 | 34046 ft | 427 kts | 227° |
| 2026-05-06 03:49 | 29.31271 | 131.13189 | 34052 ft | 427 kts | 228° |
| 2026-05-06 03:49 | 29.27390 | 131.08019 | 34053 ft | 427 kts | 227° |
| 2026-05-06 03:50 | 29.23540 | 131.02896 | 34044 ft | 426 kts | 227° |
| 2026-05-06 03:50 | 29.19668 | 130.97752 | 34044 ft | 426 kts | 227° |
| 2026-05-06 03:51 | 29.15798 | 130.92615 | 34046 ft | 426 kts | 227° |
| 2026-05-06 03:51 | 29.11926 | 130.87484 | 34044 ft | 424 kts | 227° |
| 2026-05-06 03:52 | 29.08099 | 130.82417 | 34034 ft | 422 kts | 227° |
| 2026-05-06 03:52 | 29.04261 | 130.77344 | 34019 ft | 420 kts | 227° |
| 2026-05-06 03:53 | 29.00434 | 130.72289 | 34040 ft | 420 kts | 227° |
| 2026-05-06 03:53 | 28.96633 | 130.67276 | 34043 ft | 420 kts | 227° |
| 2026-05-06 03:54 | 28.92792 | 130.62217 | 34044 ft | 420 kts | 227° |
| 2026-05-06 03:54 | 28.88954 | 130.57167 | 34020 ft | 421 kts | 228° |
| 2026-05-06 03:55 | 28.85136 | 130.52151 | 34033 ft | 420 kts | 228° |
| 2026-05-06 03:55 | 28.81294 | 130.47107 | 34052 ft | 420 kts | 227° |
| 2026-05-06 03:56 | 28.77444 | 130.42059 | 34037 ft | 421 kts | 227° |
| 2026-05-06 03:56 | 28.73594 | 130.37020 | 34024 ft | 421 kts | 229° |
| 2026-05-06 03:57 | 28.69755 | 130.32001 | 34034 ft | 422 kts | 229° |
| 2026-05-06 03:57 | 28.65891 | 130.26955 | 34039 ft | 423 kts | 229° |
| 2026-05-06 03:58 | 28.62022 | 130.21905 | 34048 ft | 424 kts | 228° |
| 2026-05-06 03:58 | 28.58133 | 130.16840 | 34042 ft | 424 kts | 229° |
| 2026-05-06 03:59 | 28.54262 | 130.11804 | 34041 ft | 422 kts | 229° |
| 2026-05-06 03:59 | 28.50394 | 130.06778 | 34044 ft | 421 kts | 229° |
| 2026-05-06 04:00 | 28.46539 | 130.01774 | 34065 ft | 420 kts | 228° |
| 2026-05-06 04:00 | 28.42701 | 129.96798 | 34036 ft | 419 kts | 229° |
| 2026-05-06 04:01 | 28.38854 | 129.91815 | 34048 ft | 419 kts | 229° |
| 2026-05-06 04:01 | 28.35008 | 129.86840 | 34049 ft | 418 kts | 229° |
| 2026-05-06 04:02 | 28.31188 | 129.81905 | 34049 ft | 418 kts | 229° |
| 2026-05-06 04:02 | 28.27338 | 129.76937 | 34038 ft | 418 kts | 229° |
| 2026-05-06 04:03 | 28.23497 | 129.71986 | 34052 ft | 417 kts | 229° |
| 2026-05-06 04:03 | 28.19659 | 129.67046 | 34054 ft | 417 kts | 229° |
| 2026-05-06 04:04 | 28.15822 | 129.62112 | 34059 ft | 417 kts | 229° |
| 2026-05-06 04:04 | 28.11980 | 129.57178 | 34058 ft | 417 kts | 229° |
| 2026-05-06 04:05 | 28.08133 | 129.52246 | 34058 ft | 418 kts | 230° |
| 2026-05-06 04:05 | 28.04310 | 129.47346 | 34057 ft | 418 kts | 230° |
| 2026-05-06 04:06 | 28.00445 | 129.42397 | 34058 ft | 418 kts | 230° |
| 2026-05-06 04:06 | 27.96585 | 129.37463 | 34060 ft | 418 kts | 230° |
| 2026-05-06 04:07 | 27.92743 | 129.32557 | 34061 ft | 420 kts | 230° |
| 2026-05-06 04:07 | 27.88856 | 129.27600 | 34063 ft | 421 kts | 230° |
| 2026-05-06 04:08 | 27.84957 | 129.22631 | 34058 ft | 422 kts | 230° |
| 2026-05-06 04:08 | 27.81049 | 129.17658 | 34056 ft | 423 kts | 230° |
| 2026-05-06 04:09 | 27.77156 | 129.12710 | 34046 ft | 424 kts | 229° |
| 2026-05-06 04:09 | 27.73226 | 129.07721 | 34053 ft | 426 kts | 229° |
| 2026-05-06 04:10 | 27.69282 | 129.02721 | 34052 ft | 427 kts | 229° |
| 2026-05-06 04:10 | 27.65320 | 128.97701 | 34050 ft | 428 kts | 229° |
| 2026-05-06 04:11 | 27.61348 | 128.92674 | 34045 ft | 429 kts | 229° |
| 2026-05-06 04:11 | 27.57375 | 128.87650 | 34040 ft | 429 kts | 229° |
| 2026-05-06 04:12 | 27.53419 | 128.82655 | 34050 ft | 430 kts | 228° |
| 2026-05-06 04:12 | 27.49432 | 128.77626 | 34049 ft | 430 kts | 228° |
| 2026-05-06 04:13 | 27.45445 | 128.72603 | 34055 ft | 429 kts | 229° |
| 2026-05-06 04:13 | 27.41843 | 128.67289 | 34043 ft | 426 kts | 239° |
| 2026-05-06 04:14 | 27.38889 | 128.61563 | 34040 ft | 424 kts | 239° |
| 2026-05-06 04:14 | 27.35909 | 128.55847 | 34036 ft | 423 kts | 238° |
| 2026-05-06 04:15 | 27.32910 | 128.50139 | 34033 ft | 423 kts | 238° |
| 2026-05-06 04:15 | 27.29915 | 128.44459 | 34033 ft | 422 kts | 238° |
| 2026-05-06 04:16 | 27.26921 | 128.38786 | 34043 ft | 421 kts | 238° |
| 2026-05-06 04:16 | 27.23941 | 128.33146 | 34043 ft | 421 kts | 238° |
| 2026-05-06 04:17 | 27.20943 | 128.27480 | 34043 ft | 421 kts | 238° |
| 2026-05-06 04:17 | 27.17939 | 128.21808 | 34042 ft | 422 kts | 238° |
| 2026-05-06 04:18 | 27.14936 | 128.16143 | 34043 ft | 422 kts | 238° |
| 2026-05-06 04:18 | 27.11939 | 128.10501 | 34042 ft | 422 kts | 238° |
| 2026-05-06 04:19 | 27.08915 | 128.04853 | 34036 ft | 422 kts | 237° |
| 2026-05-06 04:19 | 27.05876 | 127.99194 | 34031 ft | 422 kts | 237° |
| 2026-05-06 04:20 | 27.02844 | 127.93546 | 34055 ft | 422 kts | 237° |
| 2026-05-06 04:20 | 26.99825 | 127.87926 | 34033 ft | 422 kts | 238° |
| 2026-05-06 04:21 | 26.96797 | 127.82267 | 34059 ft | 423 kts | 238° |
| 2026-05-06 04:21 | 26.93762 | 127.76595 | 34053 ft | 425 kts | 238° |
| 2026-05-06 04:22 | 26.92251 | 127.73772 | 34161 ft | 428 kts | 238° |
| 2026-05-06 04:22 | 26.90722 | 127.70919 | 34453 ft | 425 kts | 237° |
| 2026-05-06 04:22 | 26.89220 | 127.68117 | 35018 ft | 415 kts | 237° |
| 2026-05-06 04:23 | 26.86256 | 127.62593 | 35480 ft | 416 kts | 237° |
| 2026-05-06 04:23 | 26.83242 | 127.56990 | 35701 ft | 421 kts | 237° |
| 2026-05-06 04:23 | 26.81733 | 127.54186 | 35993 ft | 418 kts | 237° |
| 2026-05-06 04:24 | 26.80245 | 127.51423 | 36051 ft | 421 kts | 237° |
| 2026-05-06 04:24 | 26.77210 | 127.45792 | 36086 ft | 421 kts | 237° |
| 2026-05-06 04:25 | 26.74211 | 127.40232 | 36041 ft | 414 kts | 237° |
| 2026-05-06 04:25 | 26.71237 | 127.34728 | 36015 ft | 412 kts | 237° |
| 2026-05-06 04:26 | 26.68290 | 127.29280 | 36019 ft | 412 kts | 237° |
| 2026-05-06 04:26 | 26.65306 | 127.23772 | 36035 ft | 414 kts | 237° |
| 2026-05-06 04:27 | 26.62812 | 127.19173 | 36030 ft | 417 kts | 236° |
| 2026-05-06 04:27 | 26.59287 | 127.12681 | 36019 ft | 422 kts | 236° |
| 2026-05-06 04:28 | 26.56727 | 127.07972 | 36015 ft | 424 kts | 236° |
| 2026-05-06 04:28 | 26.53674 | 127.02360 | 36004 ft | 425 kts | 237° |
| 2026-05-06 04:29 | 26.50592 | 126.96701 | 36010 ft | 428 kts | 235° |
| 2026-05-06 04:29 | 26.47480 | 126.91000 | 36011 ft | 432 kts | 235° |
| 2026-05-06 04:30 | 26.44337 | 126.85245 | 36017 ft | 435 kts | 235° |
| 2026-05-06 04:30 | 26.41200 | 126.79506 | 36004 ft | 436 kts | 235° |
| 2026-05-06 04:31 | 26.37969 | 126.73757 | 36027 ft | 436 kts | 230° |
| 2026-05-06 04:31 | 26.33757 | 126.68950 | 36012 ft | 432 kts | 217° |
| 2026-05-06 04:32 | 26.29060 | 126.64780 | 35999 ft | 432 kts | 217° |
| 2026-05-06 04:32 | 26.24371 | 126.60584 | 36000 ft | 432 kts | 217° |
| 2026-05-06 04:33 | 26.19711 | 126.56375 | 35991 ft | 430 kts | 218° |
| 2026-05-06 04:33 | 26.15081 | 126.52188 | 35998 ft | 431 kts | 218° |
| 2026-05-06 04:34 | 26.10440 | 126.47974 | 36008 ft | 427 kts | 218° |
| 2026-05-06 04:34 | 26.05878 | 126.43811 | 35993 ft | 421 kts | 218° |
| 2026-05-06 04:35 | 26.01363 | 126.39697 | 36000 ft | 419 kts | 218° |
| 2026-05-06 04:35 | 25.96879 | 126.35624 | 35993 ft | 416 kts | 218° |
| 2026-05-06 04:36 | 25.92410 | 126.31591 | 35998 ft | 414 kts | 218° |
| 2026-05-06 04:36 | 25.87881 | 126.27514 | 36010 ft | 423 kts | 218° |
| 2026-05-06 04:37 | 25.83339 | 126.23426 | 36032 ft | 416 kts | 218° |
| 2026-05-06 04:37 | 25.81128 | 126.21436 | 35975 ft | 400 kts | 218° |
| 2026-05-06 04:37 | 25.79006 | 126.19524 | 35976 ft | 386 kts | 218° |
| 2026-05-06 04:37 | 25.76961 | 126.17683 | 35980 ft | 371 kts | 218° |
| 2026-05-06 04:38 | 25.74983 | 126.15904 | 35803 ft | 363 kts | 218° |
| 2026-05-06 04:38 | 25.72991 | 126.14114 | 34828 ft | 376 kts | 218° |
| 2026-05-06 04:38 | 25.70904 | 126.12240 | 33570 ft | 395 kts | 219° |
| 2026-05-06 04:38 | 25.68721 | 126.10281 | 32555 ft | 405 kts | 219° |
| 2026-05-06 04:39 | 25.66535 | 126.08320 | 32115 ft | 406 kts | 219° |
| 2026-05-06 04:39 | 25.64347 | 126.06357 | 31619 ft | 404 kts | 219° |
| 2026-05-06 04:39 | 25.62191 | 126.04424 | 31000 ft | 403 kts | 220° |
| 2026-05-06 04:39 | 25.60014 | 126.02473 | 30422 ft | 402 kts | 220° |
| 2026-05-06 04:40 | 25.57836 | 126.00523 | 29792 ft | 401 kts | 220° |
| 2026-05-06 04:40 | 25.55659 | 125.98573 | 29035 ft | 402 kts | 220° |
| 2026-05-06 04:40 | 25.53481 | 125.96623 | 28310 ft | 404 kts | 220° |
| 2026-05-06 04:40 | 25.51273 | 125.94647 | 27604 ft | 410 kts | 220° |
| 2026-05-06 04:41 | 25.49036 | 125.92646 | 26903 ft | 416 kts | 220° |
| 2026-05-06 04:41 | 25.46775 | 125.90626 | 26067 ft | 417 kts | 220° |
| 2026-05-06 04:41 | 25.44618 | 125.88500 | 25269 ft | 415 kts | 227° |
| 2026-05-06 04:41 | 25.42756 | 125.86104 | 24501 ft | 413 kts | 233° |
| 2026-05-06 04:42 | 25.41194 | 125.83430 | 23740 ft | 412 kts | 240° |
| 2026-05-06 04:42 | 25.39796 | 125.80658 | 22883 ft | 410 kts | 240° |
| 2026-05-06 04:42 | 25.38394 | 125.77919 | 22018 ft | 409 kts | 240° |
| 2026-05-06 04:42 | 25.37000 | 125.75237 | 21203 ft | 406 kts | 239° |
| 2026-05-06 04:43 | 25.35588 | 125.72578 | 20366 ft | 394 kts | 237° |
| 2026-05-06 04:43 | 25.33843 | 125.70305 | 19548 ft | 384 kts | 222° |
| 2026-05-06 04:43 | 25.31838 | 125.68414 | 18783 ft | 373 kts | 222° |
| 2026-05-06 04:43 | 25.29900 | 125.66545 | 17984 ft | 365 kts | 223° |
| 2026-05-06 04:44 | 25.28018 | 125.64704 | 17117 ft | 357 kts | 223° |
| 2026-05-06 04:44 | 25.26175 | 125.62890 | 16276 ft | 351 kts | 224° |
| 2026-05-06 04:44 | 25.24393 | 125.61131 | 15459 ft | 345 kts | 224° |
| 2026-05-06 04:44 | 25.22616 | 125.59376 | 14664 ft | 340 kts | 224° |
| 2026-05-06 04:45 | 25.20865 | 125.57647 | 13938 ft | 334 kts | 224° |
| 2026-05-06 04:45 | 25.19157 | 125.55961 | 13340 ft | 324 kts | 224° |
| 2026-05-06 04:45 | 25.17504 | 125.54332 | 12847 ft | 312 kts | 224° |
| 2026-05-06 04:45 | 25.15913 | 125.52763 | 12332 ft | 302 kts | 224° |
| 2026-05-06 04:46 | 25.14357 | 125.51239 | 11921 ft | 297 kts | 219° |
| 2026-05-06 04:46 | 25.12659 | 125.49906 | 11485 ft | 307 kts | 209° |
| 2026-05-06 04:46 | 25.10832 | 125.48701 | 11334 ft | 300 kts | 222° |
| 2026-05-06 04:46 | 25.09094 | 125.47421 | 10339 ft | 323 kts | 212° |
| 2026-05-06 04:47 | 25.07141 | 125.46337 | 10778 ft | 301 kts | 201° |
| 2026-05-06 04:47 | 25.05211 | 125.45845 | 11221 ft | 266 kts | 205° |
| 2026-05-06 04:47 | 25.03763 | 125.44683 | 10313 ft | 267 kts | 236° |
| 2026-05-06 04:47 | 25.02944 | 125.42747 | 9473 ft | 279 kts | 245° |
| 2026-05-06 04:48 | 25.02020 | 125.40850 | 8747 ft | 281 kts | 237° |
| 2026-05-06 04:48 | 25.00894 | 125.39084 | 8060 ft | 282 kts | 232° |
| 2026-05-06 04:48 | 24.99659 | 125.37452 | 7585 ft | 277 kts | 229° |
| 2026-05-06 04:48 | 24.98360 | 125.35911 | 7148 ft | 271 kts | 226° |
| 2026-05-06 04:49 | 24.97041 | 125.34454 | 6744 ft | 265 kts | 224° |
| 2026-05-06 04:49 | 24.95742 | 125.33082 | 6555 ft | 252 kts | 224° |
| 2026-05-06 04:49 | 24.94485 | 125.31789 | 6350 ft | 242 kts | 223° |
| 2026-05-06 04:49 | 24.93263 | 125.30554 | 6144 ft | 237 kts | 222° |
| 2026-05-06 04:50 | 24.92033 | 125.29323 | 5964 ft | 241 kts | 222° |
| 2026-05-06 04:50 | 24.90778 | 125.28078 | 5776 ft | 244 kts | 222° |
| 2026-05-06 04:50 | 24.89519 | 125.26833 | 5581 ft | 243 kts | 222° |
| 2026-05-06 04:50 | 24.88264 | 125.25597 | 5383 ft | 242 kts | 221° |
| 2026-05-06 04:51 | 24.87013 | 125.24367 | 5234 ft | 239 kts | 222° |
| 2026-05-06 04:51 | 24.85792 | 125.23168 | 5109 ft | 236 kts | 222° |
| 2026-05-06 04:51 | 24.84556 | 125.21957 | 4922 ft | 240 kts | 221° |
| 2026-05-06 04:51 | 24.83304 | 125.20730 | 4742 ft | 241 kts | 222° |
| 2026-05-06 04:52 | 24.82055 | 125.19507 | 4527 ft | 238 kts | 222° |
| 2026-05-06 04:52 | 24.80825 | 125.18305 | 4327 ft | 234 kts | 221° |
| 2026-05-06 04:52 | 24.79620 | 125.17127 | 4121 ft | 229 kts | 221° |
| 2026-05-06 04:52 | 24.78450 | 125.15983 | 3920 ft | 225 kts | 220° |
| 2026-05-06 04:53 | 24.77239 | 125.14912 | 3727 ft | 221 kts | 218° |
| 2026-05-06 04:53 | 24.76031 | 125.13882 | 3526 ft | 218 kts | 218° |
| 2026-05-06 04:53 | 24.74842 | 125.12865 | 3332 ft | 214 kts | 217° |
| 2026-05-06 04:53 | 24.73691 | 125.11876 | 3136 ft | 206 kts | 218° |
| 2026-05-06 04:54 | 24.72554 | 125.10973 | 3012 ft | 199 kts | 202° |
| 2026-05-06 04:54 | 24.71235 | 125.10926 | 3020 ft | 190 kts | 169° |
| 2026-05-06 04:54 | 24.70025 | 125.11477 | 2989 ft | 192 kts | 138° |
| 2026-05-06 04:54 | 24.69223 | 125.12680 | 3014 ft | 197 kts | 129° |
| 2026-05-06 04:55 | 24.68360 | 125.13858 | 2910 ft | 200 kts | 133° |
| 2026-05-06 04:55 | 24.67439 | 125.15051 | 2808 ft | 207 kts | 131° |
| 2026-05-06 04:55 | 24.66546 | 125.16256 | 2861 ft | 206 kts | 129° |
| 2026-05-06 04:55 | 24.65959 | 125.17715 | 2903 ft | 217 kts | 95° |
| 2026-05-06 04:56 | 24.66372 | 125.19293 | 2926 ft | 223 kts | 53° |
| 2026-05-06 04:56 | 24.67619 | 125.20385 | 2641 ft | 236 kts | 31° |
| 2026-05-06 04:56 | 24.68982 | 125.21431 | 2318 ft | 240 kts | 38° |
| 2026-05-06 04:56 | 24.70294 | 125.22580 | 1984 ft | 240 kts | 39° |
| 2026-05-06 04:57 | 24.71593 | 125.23722 | 1674 ft | 237 kts | 40° |
| 2026-05-06 04:57 | 24.72877 | 125.24833 | 1354 ft | 233 kts | 38° |
| 2026-05-06 04:57 | 24.74131 | 125.25918 | 1027 ft | 229 kts | 38° |
| 2026-05-06 04:57 | 24.75360 | 125.26982 | 735 ft | 219 kts | 40° |
| 2026-05-06 04:58 | 24.76521 | 125.27986 | 432 ft | 203 kts | 40° |
| 2026-05-06 04:58 | 24.77569 | 125.28893 | 172 ft | 184 kts | 39° |
| 2026-05-06 04:58 | 24.78477 | 125.29691 | 150 ft | 140 kts | 30° |
| 2026-05-06 04:58 | 24.78907 | 125.30049 | 156 ft | 17 kts | 34° |
| 2026-05-06 04:59 | 24.78965 | 125.30092 | 158 ft | 9 kts | 42° |
| 2026-05-06 04:59 | 24.78935 | 125.30132 | 158 ft | 9 kts | 189° |
| 2026-05-06 04:59 | 24.78903 | 125.30077 | 156 ft | 9 kts | 242° |
| 2026-05-06 04:59 | 24.78855 | 125.30026 | 155 ft | 10 kts | 219° |
| 2026-05-06 05:00 | 24.78800 | 125.29978 | 155 ft | 10 kts | 218° |
| 2026-05-06 05:00 | 24.78743 | 125.29929 | 153 ft | 12 kts | 219° |
| 2026-05-06 05:00 | 24.78660 | 125.29838 | 151 ft | 23 kts | 233° |
| 2026-05-06 05:00 | 24.78507 | 125.29709 | 150 ft | 31 kts | 218° |
| 2026-05-06 05:01 | 24.78339 | 125.29563 | 149 ft | 26 kts | 219° |
| 2026-05-06 05:01 | 24.78219 | 125.29596 | 147 ft | 20 kts | 131° |
| 2026-05-06 05:01 | 24.78168 | 125.29665 | 147 ft | 10 kts | 130° |
| 2026-05-06 05:01 | 24.78108 | 125.29690 | 146 ft | 10 kts | 208° |
| 2026-05-06 05:02 | 24.78044 | 125.29679 | 146 ft | 10 kts | 143° |
| 2026-05-06 05:02 | 24.78034 | 125.29691 | 146 ft | 0 kts | 126° |
| 2026-05-06 05:02 | 24.78033 | 125.29693 | 146 ft | 1 kts | 129° |
| 2026-05-06 05:02 | 24.78027 | 125.29702 | 146 ft | 2 kts | 124° |
| 2026-05-06 05:03 | 24.78024 | 125.29707 | 146 ft | 0 kts | 123° |
| 2026-05-06 05:03 | 24.78023 | 125.29708 | 146 ft | 0 kts | 124° |